Time;durP1;ratioP1;P1;durP2;ratioP2;P2;SDS_P1;SDS_P2;PMS_P1;PMS_P2;Temp;Humidity;BMP_temperature;BMP_pressure;BME280_temperature;BME280_humidity;BME280_pressure;Samples;Min_cycle;Max_cycle;Signal;HPM_P1;HPM_P2
2021/12/06 00:03:45;;;;;;;14.77;8.27;;;;;;;-0.08;100.00;97680.53;10486357;28;20048;-64
2021/12/06 00:08:50;;;;;;;13.98;9.43;;;;;;;-0.08;100.00;97687.59;10486458;28;20071;-63
2021/12/06 00:13:53;;;;;;;17.63;9.80;;;;;;;-0.08;100.00;97699.06;10488724;28;20098;-63
2021/12/06 00:18:56;;;;;;;15.52;9.57;;;;;;;-0.06;100.00;97697.13;10488243;28;20071;-64
2021/12/06 00:24:00;;;;;;;21.35;10.93;;;;;;;-0.06;100.00;97710.34;10488598;28;20052;-63
2021/12/06 00:29:03;;;;;;;17.70;10.18;;;;;;;-0.04;100.00;97710.25;10489366;28;20075;-64
2021/12/06 00:34:12;;;;;;;23.08;11.27;;;;;;;-0.01;100.00;97710.88;10485917;28;20464;-64
2021/12/06 00:39:17;;;;;;;16.80;10.45;;;;;;;-0.02;100.00;97717.13;10488094;28;20057;-62
2021/12/06 00:44:20;;;;;;;19.08;10.18;;;;;;;0.01;100.00;97721.34;10489231;28;20045;-63
2021/12/06 00:49:23;;;;;;;14.93;9.18;;;;;;;0.03;100.00;97723.91;10490563;28;20091;-63
2021/12/06 00:54:29;;;;;;;22.58;10.32;;;;;;;0.04;100.00;97717.66;10493647;28;20040;-61
2021/12/06 00:59:33;;;;;;;22.92;11.95;;;;;;;0.03;100.00;97747.72;10517657;28;20036;-62
2021/12/06 01:04:40;;;;;;;16.92;10.55;;;;;;;0.03;100.00;97734.50;10510228;28;20056;-64
2021/12/06 01:09:46;;;;;;;18.58;10.43;;;;;;;0.06;100.00;97752.81;10517248;28;20047;-63
2021/12/06 01:14:49;;;;;;;18.98;10.55;;;;;;;0.07;100.00;97765.06;10482517;28;20048;-63
2021/12/06 01:19:56;;;;;;;19.52;10.20;;;;;;;0.06;100.00;97776.66;10486581;28;20044;-64
2021/12/06 01:25:01;;;;;;;16.38;10.07;;;;;;;0.07;100.00;97773.00;10485863;28;20461;-63
2021/12/06 01:30:22;;;;;;;16.73;11.05;;;;;;;0.08;100.00;97780.00;10485565;27;20056;-63
2021/12/06 01:40:48;;;;;;;30.75;13.40;;;;;;;0.05;100.00;97788.19;10478115;28;20045;-64
2021/12/06 01:45:51;;;;;;;19.27;11.48;;;;;;;0.06;100.00;97795.19;10481495;28;20052;-61
2021/12/06 01:50:55;;;;;;;19.08;12.20;;;;;;;0.02;100.00;97801.66;10485935;28;20462;-63
2021/12/06 01:56:01;;;;;;;23.60;12.07;;;;;;;0.01;100.00;97810.56;10482632;28;20094;-63
2021/12/06 02:01:04;;;;;;;24.42;12.73;;;;;;;-0.02;100.00;97812.47;10483186;28;20052;-62
2021/12/06 02:06:10;;;;;;;41.92;14.95;;;;;;;-0.02;100.00;97811.63;10484115;28;20404;-63
2021/12/06 02:11:14;;;;;;;51.50;15.40;;;;;;;-0.01;100.00;97814.16;10487743;28;20072;-62
2021/12/06 02:16:22;;;;;;;46.25;15.98;;;;;;;-0.02;100.00;97817.75;10491736;28;20377;-64
2021/12/06 02:21:32;;;;;;;124.68;20.90;;;;;;;0.01;100.00;97810.56;10491636;28;20477;-63
2021/12/06 02:26:37;;;;;;;93.65;20.42;;;;;;;0.04;100.00;97813.00;10491675;28;20040;-63
2021/12/06 02:31:42;;;;;;;217.77;24.40;;;;;;;0.07;100.00;97815.38;10491504;28;20044;-62
2021/12/06 02:36:46;;;;;;;313.27;26.08;;;;;;;0.05;100.00;97818.16;10496113;28;20064;-61
2021/12/06 02:41:52;;;;;;;238.27;25.73;;;;;;;0.09;100.00;97818.78;10488402;28;20052;-63
2021/12/06 02:46:56;;;;;;;202.50;24.70;;;;;;;0.11;100.00;97827.47;10489486;28;20048;-64
2021/12/06 02:52:01;;;;;;;455.05;28.42;;;;;;;0.12;100.00;97831.81;10490561;27;20697;-64
2021/12/06 02:57:20;;;;;;;299.88;29.02;;;;;;;0.12;100.00;97829.16;10491804;28;20498;-64
2021/12/06 03:02:30;;;;;;;385.65;30.38;;;;;;;0.11;100.00;97838.06;10490145;28;20154;-63
2021/12/06 03:07:37;;;;;;;276.90;33.17;;;;;;;0.04;100.00;97844.78;10489977;28;20048;-64
2021/12/06 03:12:40;;;;;;;684.75;41.30;;;;;;;0.04;100.00;97861.50;10489230;28;20051;-63
2021/12/06 03:17:45;;;;;;;429.67;38.70;;;;;;;0.07;100.00;97858.63;10483356;28;20045;-61
2021/12/06 03:22:51;;;;;;;694.10;42.80;;;;;;;0.09;100.00;97861.16;10487453;28;20044;-62
2021/12/06 03:27:54;;;;;;;388.65;35.83;;;;;;;0.11;100.00;97864.56;10490519;28;20516;-63
2021/12/06 03:32:58;;;;;;;319.05;36.40;;;;;;;0.13;100.00;97867.94;10488043;28;20335;-64
2021/12/06 03:38:03;;;;;;;189.93;33.15;;;;;;;0.18;100.00;97873.75;10488922;28;20044;-64
2021/12/06 03:43:07;;;;;;;133.75;32.90;;;;;;;0.22;100.00;97879.69;10486148;28;20474;-61
2021/12/06 03:48:11;;;;;;;117.22;32.70;;;;;;;0.23;100.00;97879.56;10486322;28;20044;-63
2021/12/06 03:53:17;;;;;;;149.35;32.75;;;;;;;0.27;100.00;97885.50;10485645;28;20044;-62
2021/12/06 03:58:22;;;;;;;200.30;31.40;;;;;;;0.20;100.00;97887.72;10484680;28;20045;-63
2021/12/06 04:03:28;;;;;;;308.17;36.08;;;;;;;0.24;100.00;97891.00;10485582;28;20139;-63
2021/12/06 04:08:34;;;;;;;262.25;34.63;;;;;;;0.26;100.00;97894.41;10486981;28;20048;-63
2021/12/06 04:13:38;;;;;;;386.65;37.15;;;;;;;0.20;100.00;97903.63;10486182;28;20045;-62
2021/12/06 04:18:41;;;;;;;420.73;40.55;;;;;;;0.18;100.00;97910.81;10483817;27;20726;-62
2021/12/06 04:23:46;;;;;;;600.42;44.67;;;;;;;0.15;100.00;97919.00;10485207;28;20051;-64
2021/12/06 04:28:58;;;;;;;411.42;43.88;;;;;;;0.17;100.00;97916.25;10482766;28;20075;-61
2021/12/06 04:34:06;;;;;;;250.93;39.50;;;;;;;0.21;100.00;97923.88;10483232;28;20051;-65
2021/12/06 04:39:19;;;;;;;247.43;38.00;;;;;;;0.20;100.00;97922.16;10485352;28;20856;-61
2021/12/06 04:44:24;;;;;;;204.88;36.67;;;;;;;0.23;100.00;97927.25;10482513;28;20117;-60
2021/12/06 04:49:29;;;;;;;185.35;35.67;;;;;;;0.21;100.00;97946.88;10484754;28;20059;-59
2021/12/06 04:54:39;;;;;;;177.45;35.45;;;;;;;0.22;100.00;97945.91;10483210;28;20131;-59
2021/12/06 04:59:48;;;;;;;181.40;36.45;;;;;;;0.17;100.00;97946.25;10484888;28;20054;-64
2021/12/06 05:04:58;;;;;;;153.35;34.83;;;;;;;0.16;100.00;97949.84;10480799;28;20051;-64
2021/12/06 05:10:08;;;;;;;168.85;37.53;;;;;;;0.19;100.00;97941.66;10480172;28;20052;-65
2021/12/06 05:15:12;;;;;;;139.63;34.03;;;;;;;0.21;100.00;97952.19;10477339;28;20044;-61
2021/12/06 05:20:16;;;;;;;140.65;34.90;;;;;;;0.21;100.00;97953.00;10482613;28;20044;-63
2021/12/06 05:25:25;;;;;;;155.13;36.78;;;;;;;0.19;100.00;97957.56;10480954;28;20060;-63
2021/12/06 05:30:29;;;;;;;138.23;36.17;;;;;;;0.22;100.00;97967.94;10483904;28;20050;-64
2021/12/06 05:35:32;;;;;;;146.45;37.20;;;;;;;0.26;100.00;97969.44;10484417;28;20036;-63
2021/12/06 05:40:37;;;;;;;148.60;39.13;;;;;;;0.26;100.00;97980.03;10485481;28;20051;-63
2021/12/06 05:45:40;;;;;;;161.45;40.13;;;;;;;0.27;100.00;97997.63;10492230;27;20056;-62
2021/12/06 05:50:46;;;;;;;215.13;45.30;;;;;;;0.32;100.00;97996.44;10493350;28;20486;-63
2021/12/06 05:55:52;;;;;;;259.20;46.95;;;;;;;0.26;100.00;98006.53;10489455;28;20119;-63
2021/12/06 06:00:57;;;;;;;206.05;39.75;;;;;;;0.18;100.00;98002.72;10492120;28;20075;-60
2021/12/06 06:06:00;;;;;;;186.30;39.03;;;;;;;0.15;100.00;98011.72;10490117;28;20423;-63
2021/12/06 06:11:05;;;;;;;196.57;39.80;;;;;;;0.16;100.00;98021.38;10491945;28;20117;-62
2021/12/06 06:16:08;;;;;;;171.38;36.42;;;;;;;0.12;100.00;98022.53;10492474;28;20132;-62
2021/12/06 06:21:20;;;;;;;124.85;32.30;;;;;;;0.06;100.00;98030.91;10490289;28;20083;-63
2021/12/06 06:26:25;;;;;;;101.00;29.33;;;;;;;0.01;100.00;98039.13;10489815;28;20144;-62
2021/12/06 06:31:28;;;;;;;115.65;32.80;;;;;;;0.01;100.00;98043.59;10486577;28;20060;-63
2021/12/06 06:36:32;;;;;;;108.57;30.13;;;;;;;0.06;100.00;98038.84;10491352;28;20070;-61
2021/12/06 06:41:37;;;;;;;112.50;31.20;;;;;;;0.03;100.00;98042.53;10489675;28;20215;-62
2021/12/06 06:46:40;;;;;;;92.15;29.75;;;;;;;0.02;100.00;98055.91;10489760;28;20582;-60
2021/12/06 06:51:46;;;;;;;79.43;28.77;;;;;;;-0.01;100.00;98062.25;10490835;28;20041;-64
2021/12/06 06:56:50;;;;;;;61.03;25.52;;;;;;;-0.04;100.00;98059.81;10499570;27;20063;-63
2021/12/06 07:02:00;;;;;;;64.80;26.40;;;;;;;-0.04;100.00;98068.59;10483186;28;20053;-65
2021/12/06 07:07:03;;;;;;;55.35;25.40;;;;;;;-0.06;100.00;98072.28;10488820;28;20044;-63
2021/12/06 07:12:13;;;;;;;48.13;24.52;;;;;;;-0.12;100.00;98075.38;10489299;28;20084;-63
2021/12/06 07:17:16;;;;;;;49.15;25.85;;;;;;;-0.19;100.00;98083.69;10489813;28;20053;-62
2021/12/06 07:22:19;;;;;;;46.63;26.13;;;;;;;-0.28;100.00;98088.75;10485948;28;20157;-64
2021/12/06 07:27:24;;;;;;;51.17;26.23;;;;;;;-0.28;100.00;98096.69;10486221;28;20143;-63
2021/12/06 07:32:27;;;;;;;46.20;25.63;;;;;;;-0.26;100.00;98105.38;10485987;28;20036;-65
2021/12/06 07:37:31;;;;;;;53.53;28.05;;;;;;;-0.30;100.00;98111.84;10489642;28;20451;-63
2021/12/06 07:42:36;;;;;;;55.80;28.23;;;;;;;-0.30;100.00;98117.97;10488213;28;20812;-64
2021/12/06 07:47:39;;;;;;;60.67;29.15;;;;;;;-0.31;100.00;98124.22;10488431;28;20108;-65
2021/12/06 07:52:43;;;;;;;56.42;28.77;;;;;;;-0.35;100.00;98117.41;10483881;28;20115;-62
2021/12/06 07:57:48;;;;;;;62.55;29.63;;;;;;;-0.34;100.00;98130.56;10486246;28;20553;-65
2021/12/06 08:02:51;;;;;;;60.75;29.60;;;;;;;-0.37;100.00;98122.81;10485200;28;20468;-66
2021/12/06 08:07:55;;;;;;;66.15;31.52;;;;;;;-0.38;100.00;98131.72;10478454;28;20416;-63
2021/12/06 08:13:00;;;;;;;64.78;31.27;;;;;;;-0.39;100.00;98140.59;10483934;28;20481;-65
2021/12/06 08:18:03;;;;;;;69.88;31.38;;;;;;;-0.38;100.00;98139.66;10488134;28;20449;-64
2021/12/06 08:23:06;;;;;;;65.90;31.45;;;;;;;-0.42;100.00;98134.66;10480827;28;20719;-66
2021/12/06 08:28:11;;;;;;;73.78;32.22;;;;;;;-0.41;100.00;98144.28;10487950;28;20044;-63
2021/12/06 08:33:14;;;;;;;71.07;33.40;;;;;;;-0.40;100.00;98151.28;10487684;28;20569;-62
2021/12/06 08:38:17;;;;;;;60.78;29.95;;;;;;;-0.43;100.00;98149.69;10485559;28;20168;-67
2021/12/06 08:43:22;;;;;;;50.20;25.88;;;;;;;-0.40;100.00;98149.47;10485646;28;20040;-62
2021/12/06 08:48:29;;;;;;;47.42;25.70;;;;;;;-0.36;100.00;98151.00;10487960;28;20423;-63
2021/12/06 08:53:32;;;;;;;49.35;26.88;;;;;;;-0.37;100.00;98159.88;10485689;28;20462;-65
2021/12/06 08:58:37;;;;;;;45.05;23.90;;;;;;;-0.42;100.00;98164.63;10488072;28;20428;-64
2021/12/06 09:03:41;;;;;;;48.30;26.70;;;;;;;-0.39;100.00;98164.41;10485989;28;20040;-64
2021/12/06 09:08:48;;;;;;;44.10;23.90;;;;;;;-0.38;100.00;98168.75;10484712;28;20047;-62
2021/12/06 09:13:53;;;;;;;45.80;24.80;;;;;;;-0.38;100.00;98168.75;10502215;28;20032;-64
2021/12/06 09:18:58;;;;;;;40.92;23.58;;;;;;;-0.39;100.00;98180.28;10505400;28;20083;-65
2021/12/06 09:24:01;;;;;;;45.58;24.20;;;;;;;-0.36;100.00;98189.84;10506673;28;20102;-64
2021/12/06 09:29:07;;;;;;;46.92;26.65;;;;;;;-0.36;100.00;98193.34;10483902;28;20053;-64
2021/12/06 09:34:11;;;;;;;49.33;26.85;;;;;;;-0.34;100.00;98193.22;10482143;28;20033;-64
2021/12/06 09:39:14;;;;;;;47.75;26.23;;;;;;;-0.36;100.00;98184.56;10485190;28;20047;-64
2021/12/06 09:44:19;;;;;;;57.72;29.92;;;;;;;-0.35;100.00;98194.19;10481139;28;20047;-64
2021/12/06 09:49:24;;;;;;;63.42;30.00;;;;;;;-0.51;100.00;98186.38;10484292;28;20155;-64
2021/12/06 09:54:32;;;;;;;66.15;29.63;;;;;;;-0.50;100.00;98193.34;10479592;28;20040;-64
2021/12/06 09:59:40;;;;;;;76.53;31.73;;;;;;;-0.49;100.00;98193.28;10481789;28;20350;-64
2021/12/06 10:04:48;;;;;;;90.45;34.15;;;;;;;-0.48;100.00;98196.75;10483626;28;20135;-64
2021/12/06 10:09:53;;;;;;;82.68;32.47;;;;;;;-0.47;100.00;98193.19;10476553;28;20052;-66
2021/12/06 10:15:00;;;;;;;91.25;34.55;;;;;;;-0.49;100.00;98197.72;10480849;28;20041;-65
2021/12/06 10:20:07;;;;;;;83.38;32.63;;;;;;;-0.44;100.00;98186.81;10481790;28;20052;-64
2021/12/06 10:25:10;;;;;;;80.55;31.75;;;;;;;-0.48;100.00;98183.53;10481484;28;20135;-64
2021/12/06 10:30:37;;;;;;;81.53;32.08;;;;;;;-0.45;100.00;98180.69;10486653;28;20044;-61
2021/12/06 10:35:42;;;;;;;82.40;32.15;;;;;;;-0.43;100.00;98178.81;10488305;28;20567;-64
2021/12/06 10:40:45;;;;;;;72.85;31.17;;;;;;;-0.41;100.00;98184.81;10491194;28;20120;-60
2021/12/06 10:45:51;;;;;;;71.60;30.73;;;;;;;-0.39;100.00;98182.09;10488401;28;20068;-65
2021/12/06 10:51:01;;;;;;;80.63;33.05;;;;;;;-0.36;100.00;98171.34;10490926;28;20048;-62
2021/12/06 10:56:14;;;;;;;88.85;36.63;;;;;;;-0.28;100.00;98165.50;10486632;28;20123;-64
2021/12/06 11:01:20;;;;;;;97.20;38.45;;;;;;;-0.32;100.00;98168.38;10490673;28;20090;-62
2021/12/06 11:06:27;;;;;;;108.28;39.40;;;;;;;-0.28;100.00;98155.78;10488902;28;20107;-65
2021/12/06 11:11:35;;;;;;;107.72;39.25;;;;;;;-0.26;100.00;98158.31;10489864;28;20123;-66
2021/12/06 11:16:41;;;;;;;95.68;38.90;;;;;;;-0.26;100.00;98153.91;10488448;28;20124;-67
2021/12/06 11:21:50;;;;;;;105.43;40.80;;;;;;;-0.21;100.00;98148.31;10486939;28;20044;-64
2021/12/06 11:26:58;;;;;;;109.53;40.85;;;;;;;-0.21;100.00;98150.94;10483017;28;20163;-68
2021/12/06 11:32:08;;;;;;;107.70;39.63;;;;;;;-0.20;100.00;98155.28;10489005;28;20068;-65
2021/12/06 11:37:15;;;;;;;95.32;37.50;;;;;;;-0.17;100.00;98157.72;10487995;28;20481;-60
2021/12/06 11:42:19;;;;;;;92.68;37.88;;;;;;;-0.15;100.00;98166.41;10487100;28;20040;-57
2021/12/06 11:47:27;;;;;;;101.13;39.13;;;;;;;-0.15;100.00;98155.84;10483807;28;20072;-66
2021/12/06 11:52:34;;;;;;;102.97;38.30;;;;;;;-0.14;100.00;98156.69;10485905;28;20124;-57
2021/12/06 11:57:40;;;;;;;96.65;37.50;;;;;;;-0.13;100.00;98156.59;10487724;28;20121;-60
2021/12/06 12:02:48;;;;;;;93.97;36.22;;;;;;;-0.12;100.00;98162.75;10487806;28;20048;-57
2021/12/06 12:08:11;;;;;;;85.35;35.75;;;;;;;-0.16;100.00;98149.69;10487206;28;20048;-57
2021/12/06 12:13:21;;;;;;;81.10;33.80;;;;;;;-0.16;100.00;98149.69;10486171;28;20477;-59
2021/12/06 12:18:27;;;;;;;81.00;34.23;;;;;;;-0.13;100.00;98159.22;10487761;28;20083;-65
2021/12/06 12:23:32;;;;;;;76.32;34.40;;;;;;;-0.09;100.00;98160.75;10484204;28;20390;-63
2021/12/06 12:28:48;;;;;;;80.93;32.85;;;;;;;-0.07;100.00;98166.78;10489007;28;20139;-64
2021/12/06 12:33:56;;;;;;;66.18;31.08;;;;;;;-0.07;100.00;98174.72;10485672;28;20384;-59
2021/12/06 12:39:03;;;;;;;75.20;32.28;;;;;;;-0.03;100.00;98159.50;10470552;28;20400;-61
2021/12/06 12:44:08;;;;;;;56.15;26.85;;;;;;;-0.04;100.00;98169.22;10485829;28;20561;-62
2021/12/06 12:49:15;;;;;;;55.50;27.67;;;;;;;-0.02;100.00;98172.63;10488921;28;20634;-64
2021/12/06 12:54:22;;;;;;;52.83;26.73;;;;;;;-0.01;100.00;98169.03;10482250;28;20036;-65
2021/12/06 12:59:31;;;;;;;57.83;27.77;;;;;;;-0.02;100.00;98162.03;10484259;28;20466;-63
2021/12/06 13:05:07;;;;;;;51.95;26.85;;;;;;;-0.02;100.00;98151.44;10485681;28;20044;-64
2021/12/06 13:15:51;;;;;;;47.35;25.05;;;;;;;-0.06;100.00;98138.50;10483919;27;20631;-61
2021/12/06 13:20:55;;;;;;;50.22;27.33;;;;;;;-0.07;100.00;98137.66;10481941;28;20045;-62
2021/12/06 13:26:09;;;;;;;47.50;25.98;;;;;;;-0.07;100.00;98127.06;10480320;28;20062;-61
2021/12/06 13:31:31;;;;;;;45.33;25.17;;;;;;;-0.06;100.00;98134.03;10481500;28;20803;-64
2021/12/06 13:36:42;;;;;;;55.38;28.85;;;;;;;-0.03;100.00;98122.41;10483799;28;20044;-64
2021/12/06 13:41:46;;;;;;;55.38;28.52;;;;;;;-0.02;100.00;98119.66;10479663;28;20059;-62
2021/12/06 13:46:53;;;;;;;63.40;31.65;;;;;;;-0.04;100.00;98132.13;10483832;28;20659;-63
2021/12/06 13:51:58;;;;;;;56.58;29.65;;;;;;;-0.05;100.00;98132.25;10479524;28;20076;-63
2021/12/06 13:57:03;;;;;;;55.92;30.05;;;;;;;-0.07;100.00;98132.38;10488788;28;20123;-63
2021/12/06 14:02:10;;;;;;;56.88;29.75;;;;;;;-0.08;100.00;98138.59;10502836;28;20052;-62
2021/12/06 14:07:17;;;;;;;57.17;29.65;;;;;;;-0.07;100.00;98137.66;10499547;28;20431;-62
2021/12/06 14:12:23;;;;;;;55.40;29.05;;;;;;;-0.09;100.00;98143.97;10482138;28;20049;-60
2021/12/06 14:17:28;;;;;;;58.85;29.10;;;;;;;-0.11;100.00;98152.03;10483409;28;20110;-64
2021/12/06 14:22:31;;;;;;;52.13;27.83;;;;;;;-0.11;100.00;98152.03;10475859;28;20056;-65
2021/12/06 14:27:36;;;;;;;52.42;28.70;;;;;;;-0.14;100.00;98149.59;10455784;28;20114;-65
2021/12/06 14:32:48;;;;;;;49.03;29.17;;;;;;;-0.11;100.00;98145.88;10448988;28;20064;-64
2021/12/06 14:37:52;;;;;;;51.95;28.60;;;;;;;-0.17;100.00;98141.84;10457172;28;20051;-62
2021/12/06 14:42:55;;;;;;;47.08;27.13;;;;;;;-0.18;100.00;98145.47;10460102;28;20078;-63
2021/12/06 14:48:08;;;;;;;50.20;27.30;;;;;;;-0.19;100.00;98152.53;10452846;28;20077;-61
2021/12/06 14:53:20;;;;;;;50.95;27.80;;;;;;;-0.20;100.00;98144.72;10452151;28;20144;-63
2021/12/06 14:58:27;;;;;;;43.25;25.73;;;;;;;-0.21;100.00;98146.50;10449464;28;20468;-61
2021/12/06 15:03:38;;;;;;;48.03;26.73;;;;;;;-0.24;100.00;98140.56;10453581;28;20045;-61
2021/12/06 15:08:56;;;;;;;51.00;28.25;;;;;;;-0.23;100.00;98148.38;10451443;28;20045;-61
2021/12/06 15:14:15;;;;;;;60.97;31.88;;;;;;;-0.22;100.00;98154.53;10448659;28;20184;-59
2021/12/06 15:19:21;;;;;;;54.55;30.08;;;;;;;-0.24;100.00;98140.56;10450628;28;20124;-60
2021/12/06 15:24:25;;;;;;;51.63;30.10;;;;;;;-0.23;100.00;98145.72;10451352;28;20045;-63
2021/12/06 15:29:33;;;;;;;51.38;29.45;;;;;;;-0.26;100.00;98140.66;10448735;28;20124;-59
2021/12/06 15:34:40;;;;;;;50.58;29.15;;;;;;;-0.23;100.00;98142.25;10458089;28;20088;-56
2021/12/06 15:39:45;;;;;;;52.63;29.50;;;;;;;-0.22;100.00;98141.31;10459342;28;20514;-55
2021/12/06 15:44:51;;;;;;;53.33;30.48;;;;;;;-0.20;100.00;98137.59;10454840;28;20045;-64
2021/12/06 15:49:59;;;;;;;54.75;30.58;;;;;;;-0.19;100.00;98147.25;10461739;28;20522;-56
2021/12/06 15:55:09;;;;;;;59.67;31.00;;;;;;;-0.17;100.00;98141.84;10461350;28;20429;-60
2021/12/06 16:00:20;;;;;;;58.70;33.47;;;;;;;-0.14;100.00;98136.34;10461239;28;20040;-61
2021/12/06 16:05:31;;;;;;;57.53;32.55;;;;;;;-0.13;100.00;98137.22;10463271;28;20041;-59
2021/12/06 16:10:37;;;;;;;58.20;30.65;;;;;;;-0.12;100.00;98136.28;10453780;28;20048;-64
2021/12/06 16:15:43;;;;;;;56.90;31.27;;;;;;;-0.09;100.00;98138.69;10466174;28;20033;-66
2021/12/06 16:20:56;;;;;;;62.45;34.78;;;;;;;-0.09;100.00;98134.25;10458117;28;20095;-64
2021/12/06 16:26:04;;;;;;;;;;;;;;;-0.10;100.00;98134.34;10464780;28;20040;-62
2021/12/06 16:31:18;;;;;;;59.83;33.55;;;;;;;-0.10;100.00;98132.56;10454424;28;20308;-65
2021/12/06 16:36:26;;;;;;;61.92;33.53;;;;;;;-0.08;100.00;98133.31;10479055;22;20458;-56
2021/12/06 16:41:30;;;;;;;56.35;32.45;;;;;;;-0.07;100.00;98136.78;10417620;28;20049;-65
2021/12/06 16:46:43;;;;;;;57.95;33.40;;;;;;;-0.08;100.00;98128.00;10418033;28;20041;-55
2021/12/06 16:51:48;;;;;;;57.42;33.83;;;;;;;-0.09;100.00;98118.38;10403954;28;20128;-60
2021/12/06 16:56:56;;;;;;;57.55;33.42;;;;;;;-0.09;100.00;98123.66;10404367;28;20075;-58
2021/12/06 17:02:03;;;;;;;59.47;33.60;;;;;;;-0.09;100.00;98123.66;10408306;28;20037;-60
2021/12/06 17:07:30;;;;;;;62.20;34.72;;;;;;;-0.07;100.00;98110.31;10402348;28;20046;-57
2021/12/06 17:12:38;;;;;;;61.42;34.67;;;;;;;-0.09;100.00;98107.78;10401159;28;20034;-59
2021/12/06 17:17:47;;;;;;;59.38;33.85;;;;;;;-0.07;100.00;98105.00;10402091;28;20045;-58
2021/12/06 17:22:55;;;;;;;59.08;33.83;;;;;;;-0.07;100.00;98108.53;10401602;28;20045;-59
2021/12/06 17:28:12;;;;;;;62.53;34.53;;;;;;;-0.06;100.00;98091.66;10404194;28;20059;-63
2021/12/06 17:33:22;;;;;;;59.53;35.22;;;;;;;-0.06;100.00;98090.84;10407304;28;20040;-63
2021/12/06 17:38:29;;;;;;;67.88;35.38;;;;;;;-0.07;100.00;98076.75;10418139;28;20053;-62
2021/12/06 17:43:32;;;;;;;60.65;35.17;;;;;;;-0.06;100.00;98065.19;10413295;28;20145;-59
2021/12/06 17:55:31;;;;;;;68.82;37.63;;;;;;;-0.07;100.00;98060.00;10397481;28;20037;-59
2021/12/06 18:00:34;;;;;;;67.78;36.92;;;;;;;-0.07;100.00;98060.00;10405390;28;20057;-58
2021/12/06 18:05:40;;;;;;;65.90;36.65;;;;;;;-0.07;100.00;98065.28;10410211;28;20516;-56
2021/12/06 18:10:46;;;;;;;66.78;34.90;;;;;;;-0.07;100.00;98058.22;10415590;28;20057;-54
2021/12/06 18:15:51;;;;;;;62.45;34.28;;;;;;;-0.06;100.00;98054.59;10410474;28;20041;-55
2021/12/06 18:20:56;;;;;;;62.22;34.40;;;;;;;-0.06;100.00;98051.09;10414310;28;20063;-59
2021/12/06 18:26:01;;;;;;;60.05;33.10;;;;;;;-0.05;100.00;98051.00;10413051;28;20045;-54
2021/12/06 18:31:08;;;;;;;59.85;33.25;;;;;;;-0.05;100.00;98037.75;10409294;28;20398;-54
2021/12/06 18:36:14;;;;;;;56.67;33.65;;;;;;;-0.07;100.00;98047.63;10406345;28;20053;-55
2021/12/06 18:41:21;;;;;;;63.17;33.80;;;;;;;-0.06;100.00;98038.69;10407293;28;20116;-52
2021/12/06 18:46:25;;;;;;;66.40;35.40;;;;;;;-0.07;100.00;98029.09;10411081;28;20804;-54
2021/12/06 18:51:31;;;;;;;64.45;34.28;;;;;;;-0.07;100.00;98028.22;10406553;28;20080;-51
2021/12/06 18:56:37;;;;;;;67.25;35.47;;;;;;;-0.08;100.00;98019.44;10408707;28;20531;-53
2021/12/06 19:01:41;;;;;;;67.32;35.15;;;;;;;-0.07;100.00;98025.56;10412422;28;20053;-56
2021/12/06 19:06:45;;;;;;;76.13;36.80;;;;;;;-0.07;100.00;98025.56;10407056;28;20045;-53
2021/12/06 19:11:51;;;;;;;74.75;36.40;;;;;;;-0.06;100.00;98017.50;10407715;28;20049;-58
2021/12/06 19:17:12;;;;;;;77.03;37.42;;;;;;;-0.06;100.00;98014.03;10405952;28;20045;-60
2021/12/06 19:22:17;;;;;;;77.03;36.50;;;;;;;-0.06;100.00;98011.38;10408374;28;20052;-56
2021/12/06 19:27:22;;;;;;;77.75;37.08;;;;;;;-0.06;100.00;97998.97;10423138;28;20114;-58
2021/12/06 19:32:26;;;;;;;80.72;35.72;;;;;;;-0.06;100.00;97985.75;10414669;28;20498;-54
2021/12/06 19:37:29;;;;;;;77.05;35.72;;;;;;;-0.08;100.00;97995.63;10419847;28;20076;-53
2021/12/06 19:42:34;;;;;;;84.47;37.38;;;;;;;-0.08;100.00;97987.66;10412871;28;20140;-55
2021/12/06 19:47:38;;;;;;;84.68;37.50;;;;;;;-0.08;100.00;97982.38;10413703;28;20053;-55
2021/12/06 19:52:41;;;;;;;81.65;35.38;;;;;;;-0.09;100.00;97975.38;10404865;28;20068;-58
2021/12/06 19:57:45;;;;;;;87.53;36.58;;;;;;;-0.11;100.00;97961.41;10404718;28;20045;-60
2021/12/06 20:02:49;;;;;;;85.32;34.70;;;;;;;-0.14;100.00;97956.31;10406349;28;20041;-58
2021/12/06 20:07:53;;;;;;;78.28;34.15;;;;;;;-0.17;100.00;97951.22;10407509;28;20565;-61
2021/12/06 20:12:57;;;;;;;81.95;34.22;;;;;;;-0.16;100.00;97964.34;10401046;28;20077;-60
2021/12/06 20:18:03;;;;;;;81.82;35.65;;;;;;;-0.15;100.00;97951.97;10406478;28;20042;-57
2021/12/06 20:23:07;;;;;;;79.80;35.83;;;;;;;-0.17;100.00;97953.84;10411595;28;20077;-61
2021/12/06 20:28:15;;;;;;;72.57;33.33;;;;;;;-0.18;100.00;97950.38;10412806;28;20055;-58
2021/12/06 20:33:19;;;;;;;78.38;34.30;;;;;;;-0.18;100.00;97950.38;10405930;28;20117;-60
2021/12/06 20:38:23;;;;;;;81.50;35.42;;;;;;;-0.19;100.00;97926.66;10404389;28;20332;-58
2021/12/06 20:43:28;;;;;;;81.93;34.35;;;;;;;-0.17;100.00;97925.59;10410497;28;20124;-57
2021/12/06 20:48:32;;;;;;;76.35;33.67;;;;;;;-0.16;100.00;97918.50;10404292;28;20120;-60
2021/12/06 20:53:38;;;;;;;72.82;32.38;;;;;;;-0.16;100.00;97915.84;10400281;28;20147;-58
2021/12/06 20:58:42;;;;;;;73.10;32.28;;;;;;;-0.14;100.00;97908.66;10405154;28;20052;-59
2021/12/06 21:03:45;;;;;;;70.90;31.55;;;;;;;-0.16;100.00;97903.47;10403328;28;20091;-58
2021/12/06 21:08:49;;;;;;;67.10;32.00;;;;;;;-0.17;100.00;97904.41;10409522;28;20450;-57
2021/12/06 21:13:59;;;;;;;65.18;30.58;;;;;;;-0.17;100.00;97898.25;10405326;28;20139;-60
2021/12/06 21:19:05;;;;;;;65.30;30.67;;;;;;;-0.16;100.00;97898.16;10407570;28;20073;-60
2021/12/06 21:24:12;;;;;;;57.92;29.17;;;;;;;-0.14;100.00;97898.06;10404754;28;20095;-60
2021/12/06 21:29:17;;;;;;;65.82;31.23;;;;;;;-0.08;100.00;97896.78;10398963;28;20780;-59
2021/12/06 21:34:20;;;;;;;55.88;28.45;;;;;;;-0.07;100.00;97888.75;10405728;28;20457;-61
2021/12/06 21:39:25;;;;;;;55.30;28.60;;;;;;;-0.03;100.00;97887.56;10418375;28;20149;-60
2021/12/06 21:44:29;;;;;;;53.95;28.45;;;;;;;-0.02;100.00;97865.41;10417390;28;20100;-58
2021/12/06 21:49:32;;;;;;;51.42;27.20;;;;;;;-0.01;100.00;97856.53;10412628;28;20099;-57
2021/12/06 21:54:36;;;;;;;58.92;29.75;;;;;;;0.02;100.00;97858.09;10415061;28;20044;-59
2021/12/06 21:59:40;;;;;;;51.05;28.02;;;;;;;0.04;100.00;97858.84;10411840;28;20132;-59
2021/12/06 22:04:43;;;;;;;49.10;26.05;;;;;;;0.07;100.00;97852.47;10413951;28;20072;-59
2021/12/06 22:09:47;;;;;;;54.00;27.75;;;;;;;0.07;100.00;97850.69;10410299;28;20133;-58
2021/12/06 22:14:51;;;;;;;45.65;24.90;;;;;;;0.09;100.00;97843.47;10414006;28;20049;-53
2021/12/06 22:19:55;;;;;;;48.35;26.30;;;;;;;0.13;100.00;97852.06;10410677;28;20069;-60
2021/12/06 22:24:58;;;;;;;46.17;25.77;;;;;;;0.13;100.00;97854.69;10412772;28;20060;-56
2021/12/06 22:30:05;;;;;;;49.67;26.20;;;;;;;0.10;100.00;97858.41;10412225;28;20068;-58
2021/12/06 22:35:09;;;;;;;58.63;28.27;;;;;;;0.02;100.00;97849.31;10412018;28;20083;-58
2021/12/06 22:40:16;;;;;;;59.40;28.88;;;;;;;0.03;100.00;97840.44;10411282;28;20049;-58
2021/12/06 22:45:20;;;;;;;61.75;30.58;;;;;;;0.02;100.00;97844.03;10412116;28;20383;-54
2021/12/06 22:50:24;;;;;;;53.65;28.60;;;;;;;0.05;100.00;97830.56;10412451;28;20079;-53
2021/12/06 22:55:28;;;;;;;53.58;27.20;;;;;;;0.04;100.00;97820.94;10443974;22;20033;-81
2021/12/06 23:01:12;;;;;;;63.28;28.38;;;;;;;0.04;100.00;97813.00;10420528;28;20106;-81
2021/12/06 23:06:20;;;;;;;59.42;28.90;;;;;;;0.03;100.00;97808.66;10412752;28;20037;-80
2021/12/06 23:11:24;;;;;;;52.65;28.15;;;;;;;-0.04;100.00;97795.81;10417030;28;20060;-82
2021/12/06 23:16:29;;;;;;;61.30;29.00;;;;;;;-0.10;100.00;97783.03;10421411;28;20564;-81